sensor_id;sensor_type;location;lat;lon;timestamp;temperature;humidity
51486;DHT22;37565;51.352;6.412;2023-04-25T19:45:45;19.00;87.30
51486;DHT22;37565;51.352;6.412;2023-04-25T19:48:14;19.00;88.20
51486;DHT22;37565;51.352;6.412;2023-04-25T19:50:42;19.10;88.10
51486;DHT22;37565;51.352;6.412;2023-04-25T19:53:10;19.10;87.90
51486;DHT22;37565;51.352;6.412;2023-04-25T19:55:38;19.10;87.90
51486;DHT22;37565;51.352;6.412;2023-04-25T19:58:06;19.10;87.60
51486;DHT22;37565;51.352;6.412;2023-04-25T20:00:34;19.20;86.70
51486;DHT22;37565;51.352;6.412;2023-04-25T20:03:04;19.20;87.90
51486;DHT22;37565;51.352;6.412;2023-04-25T20:05:32;19.20;87.60
51486;DHT22;37565;51.352;6.412;2023-04-25T20:07:59;19.30;87.90
51486;DHT22;37565;51.352;6.412;2023-04-25T20:10:28;19.30;87.70
51486;DHT22;37565;51.352;6.412;2023-04-25T20:12:56;19.30;88.70
51486;DHT22;37565;51.352;6.412;2023-04-25T20:15:24;19.30;87.80
51486;DHT22;37565;51.352;6.412;2023-04-25T20:17:53;19.20;87.20
51486;DHT22;37565;51.352;6.412;2023-04-25T20:20:22;19.30;87.20
51486;DHT22;37565;51.352;6.412;2023-04-25T20:22:50;19.30;87.40
51486;DHT22;37565;51.352;6.412;2023-04-25T20:25:19;19.30;87.60
51486;DHT22;37565;51.352;6.412;2023-04-25T20:27:48;19.30;87.30
51486;DHT22;37565;51.352;6.412;2023-04-25T20:30:16;19.30;87.30
51486;DHT22;37565;51.352;6.412;2023-04-25T20:32:44;19.30;87.50
51486;DHT22;37565;51.352;6.412;2023-04-25T20:35:12;19.30;87.60
51486;DHT22;37565;51.352;6.412;2023-04-25T20:37:41;19.30;87.30
51486;DHT22;37565;51.352;6.412;2023-04-25T20:40:16;19.30;87.90
51486;DHT22;37565;51.352;6.412;2023-04-25T20:42:43;19.30;87.60
51486;DHT22;37565;51.352;6.412;2023-04-25T20:45:13;19.30;87.10
51486;DHT22;37565;51.352;6.412;2023-04-25T20:47:41;19.30;86.70
51486;DHT22;37565;51.352;6.412;2023-04-25T20:50:10;19.30;87.10
51486;DHT22;37565;51.352;6.412;2023-04-25T20:52:38;19.20;87.40
51486;DHT22;37565;51.352;6.412;2023-04-25T20:55:09;19.30;87.70
51486;DHT22;37565;51.352;6.412;2023-04-25T20:57:37;19.30;88.50
51486;DHT22;37565;51.352;6.412;2023-04-25T21:00:07;19.30;88.30
51486;DHT22;37565;51.352;6.412;2023-04-25T21:02:43;19.30;88.30
51486;DHT22;37565;51.352;6.412;2023-04-25T21:05:12;19.30;88.50
51486;DHT22;37565;51.352;6.412;2023-04-25T21:07:40;19.30;88.50
51486;DHT22;37565;51.352;6.412;2023-04-25T21:10:10;19.30;88.20
51486;DHT22;37565;51.352;6.412;2023-04-25T21:12:38;19.30;88.50
51486;DHT22;37565;51.352;6.412;2023-04-25T21:15:07;19.30;88.10
51486;DHT22;37565;51.352;6.412;2023-04-25T21:17:35;19.30;88.60
51486;DHT22;37565;51.352;6.412;2023-04-25T21:20:03;19.30;88.70
51486;DHT22;37565;51.352;6.412;2023-04-25T21:22:35;19.30;88.80
51486;DHT22;37565;51.352;6.412;2023-04-25T21:25:11;19.30;88.00
51486;DHT22;37565;51.352;6.412;2023-04-25T21:27:40;19.30;88.60
51486;DHT22;37565;51.352;6.412;2023-04-25T21:30:09;19.30;88.10
51486;DHT22;37565;51.352;6.412;2023-04-25T21:32:37;19.30;88.50
51486;DHT22;37565;51.352;6.412;2023-04-25T21:35:06;19.30;88.30
51486;DHT22;37565;51.352;6.412;2023-04-25T21:37:34;19.30;88.80
51486;DHT22;37565;51.352;6.412;2023-04-25T21:40:02;19.30;88.90
51486;DHT22;37565;51.352;6.412;2023-04-25T21:42:32;19.30;88.90
51486;DHT22;37565;51.352;6.412;2023-04-25T21:45:00;19.30;89.00
51486;DHT22;37565;51.352;6.412;2023-04-25T21:47:29;19.20;88.90
51486;DHT22;37565;51.352;6.412;2023-04-25T21:49:57;19.30;88.50
51486;DHT22;37565;51.352;6.412;2023-04-25T21:52:26;19.20;87.80
51486;DHT22;37565;51.352;6.412;2023-04-25T21:54:54;19.20;88.60
51486;DHT22;37565;51.352;6.412;2023-04-25T21:57:22;19.20;88.90
51486;DHT22;37565;51.352;6.412;2023-04-25T21:59:51;19.30;89.10
